createdAt,value
2019-01-23T00:00:41.098Z,37.50
2019-01-23T00:05:48.112Z,36.77
2019-01-23T00:10:54.557Z,38.97
2019-01-23T00:16:02.196Z,36.80
2019-01-23T00:21:09.236Z,37.00
2019-01-23T00:26:17.896Z,36.37
2019-01-23T00:31:24.785Z,34.87
2019-01-23T00:36:30.946Z,33.23
2019-01-23T00:41:37.685Z,33.40
2019-01-23T00:46:44.605Z,34.53
2019-01-23T00:51:51.443Z,31.80
2019-01-23T00:56:58.028Z,31.93
2019-01-23T01:02:06.033Z,32.07
2019-01-23T01:07:13.380Z,32.57
2019-01-23T01:12:19.585Z,30.83
2019-01-23T01:17:27.107Z,33.17
2019-01-23T01:22:34.764Z,30.90
2019-01-23T01:27:41.330Z,31.50
2019-01-23T01:32:47.463Z,28.97
2019-01-23T01:37:55.064Z,30.00
2019-01-23T01:43:01.881Z,31.33
2019-01-23T01:48:08.143Z,30.97
2019-01-23T01:53:15.920Z,29.57
2019-01-23T01:58:23.595Z,29.20
2019-01-23T02:03:30.405Z,28.47
2019-01-23T02:08:37.339Z,29.43
2019-01-23T02:13:44.937Z,28.77
2019-01-23T02:18:53.511Z,29.73
2019-01-23T02:24:01.504Z,28.40
2019-01-23T02:29:09.604Z,28.37
2019-01-23T02:34:16.471Z,30.70
2019-01-23T02:39:22.358Z,29.67
2019-01-23T02:44:28.995Z,29.13
2019-01-23T02:49:35.302Z,29.43
2019-01-23T02:54:43.513Z,29.33
2019-01-23T02:59:50.172Z,29.47
2019-01-23T03:04:59.147Z,30.83
2019-01-23T03:10:12.923Z,28.93
2019-01-23T03:15:25.189Z,30.70
2019-01-23T03:20:34.361Z,30.23
2019-01-23T03:25:43.146Z,30.17
2019-01-23T03:30:55.942Z,30.23
2019-01-23T03:36:04.487Z,30.80
2019-01-23T03:41:13.605Z,30.10
2019-01-23T03:46:23.480Z,31.63
2019-01-23T03:51:32.066Z,31.70
2019-01-23T03:56:41.711Z,33.03
2019-01-23T04:01:50.622Z,32.30
2019-01-23T04:07:00.528Z,32.10
2019-01-23T04:12:09.764Z,32.87
2019-01-23T04:17:18.915Z,33.93
2019-01-23T04:22:26.290Z,33.97
2019-01-23T04:27:34.249Z,30.90
2019-01-23T04:32:42.939Z,32.50
2019-01-23T04:37:54.710Z,31.97
2019-01-23T04:43:03.374Z,32.67
2019-01-23T04:48:12.593Z,33.77
2019-01-23T04:53:22.774Z,33.83
2019-01-23T04:58:31.377Z,33.80
2019-01-23T05:03:39.575Z,31.97
2019-01-23T05:14:09.562Z,33.37
2019-01-23T05:19:18.971Z,31.73
2019-01-23T05:24:27.823Z,32.17
2019-01-23T05:29:36.745Z,31.13
2019-01-23T05:34:45.503Z,32.83
2019-01-23T05:39:58.633Z,31.63
2019-01-23T05:45:12.667Z,33.40
2019-01-23T05:50:20.854Z,32.00
2019-01-23T05:55:28.472Z,29.83
2019-01-23T06:00:37.320Z,33.43
2019-01-23T06:05:44.596Z,31.83
2019-01-23T06:10:51.848Z,33.37
2019-01-23T06:16:00.291Z,31.83
2019-01-23T06:21:08.721Z,32.30
2019-01-23T06:26:19.848Z,32.33
2019-01-23T06:31:28.831Z,33.17
2019-01-23T06:36:38.593Z,32.53
2019-01-23T06:41:49.503Z,34.53
2019-01-23T06:46:58.104Z,34.70
2019-01-23T06:52:07.914Z,35.00
2019-01-23T06:57:19.986Z,36.03
2019-01-23T07:02:29.936Z,34.57
2019-01-23T07:07:38.771Z,35.43
2019-01-23T07:12:51.641Z,38.13
2019-01-23T07:18:00.328Z,34.70
2019-01-23T07:28:49.164Z,37.63
2019-01-23T07:33:54.590Z,39.90
2019-01-23T07:39:04.812Z,41.27
2019-01-23T07:44:14.179Z,41.17
2019-01-23T07:49:23.180Z,41.23
2019-01-23T07:54:32.431Z,41.73
2019-01-23T07:59:42.374Z,44.53
2019-01-23T08:04:51.510Z,44.70
2019-01-23T08:10:00.245Z,46.40
2019-01-23T08:15:19.143Z,47.47
2019-01-23T08:20:32.650Z,50.10
2019-01-23T08:25:43.221Z,50.80
2019-01-23T08:30:52.496Z,51.03
2019-01-23T08:36:05.555Z,53.17
2019-01-23T08:41:13.686Z,54.27
2019-01-23T08:46:23.232Z,51.63
2019-01-23T08:51:32.548Z,57.47
2019-01-23T08:56:49.511Z,57.90
2019-01-23T09:01:59.944Z,60.47
2019-01-23T09:07:08.780Z,59.33
2019-01-23T09:12:16.807Z,60.53
2019-01-23T09:17:25.255Z,61.27
2019-01-23T09:22:34.579Z,62.37
2019-01-23T09:27:42.911Z,66.97
2019-01-23T09:33:10.279Z,69.23
2019-01-23T09:38:25.932Z,65.40
2019-01-23T09:43:43.235Z,70.57
2019-01-23T09:49:11.027Z,70.63
2019-01-23T09:54:18.324Z,67.10
2019-01-23T09:59:30.807Z,70.70
2019-01-23T10:04:38.517Z,69.83
2019-01-23T10:09:47.386Z,72.73
2019-01-23T10:14:56.518Z,72.93
2019-01-23T10:20:04.378Z,72.23
2019-01-23T10:25:13.677Z,74.20
2019-01-23T10:30:22.046Z,73.67
2019-01-23T10:35:32.569Z,75.20
2019-01-23T10:40:41.783Z,76.63
2019-01-23T10:45:51.719Z,74.87
2019-01-23T10:50:59.571Z,78.77
2019-01-23T10:56:07.381Z,78.73
2019-01-23T11:01:14.479Z,73.87
2019-01-23T11:06:21.711Z,79.47
2019-01-23T11:11:30.338Z,80.67
2019-01-23T11:16:37.340Z,78.70
2019-01-23T11:21:43.351Z,79.37
2019-01-23T11:26:49.346Z,78.73
2019-01-23T11:31:55.104Z,77.47
2019-01-23T11:37:00.844Z,80.07
2019-01-23T11:42:06.778Z,81.07
2019-01-23T11:47:15.655Z,83.43
2019-01-23T11:52:23.881Z,82.43
2019-01-23T11:57:29.750Z,78.40
2019-01-23T12:02:37.071Z,81.50
2019-01-23T12:07:44.769Z,75.63
2019-01-23T12:12:52.594Z,78.20
2019-01-23T12:17:58.529Z,80.37
2019-01-23T12:23:05.073Z,76.03
2019-01-23T12:28:11.748Z,73.13
2019-01-23T12:33:17.645Z,74.80
2019-01-23T12:38:24.465Z,74.00
2019-01-23T12:43:30.418Z,72.60
2019-01-23T12:48:36.579Z,70.87
2019-01-23T12:53:42.342Z,78.97
2019-01-23T12:58:48.049Z,68.47
2019-01-23T13:03:54.264Z,68.47
2019-01-23T13:09:00.977Z,67.43
2019-01-23T13:14:08.730Z,64.83
2019-01-23T13:19:14.836Z,67.97
2019-01-23T13:24:20.919Z,68.40
2019-01-23T13:29:28.388Z,69.30
2019-01-23T13:34:34.635Z,70.57
2019-01-23T13:39:41.248Z,68.47
2019-01-23T13:44:47.161Z,65.73
2019-01-23T13:49:53.826Z,65.87
2019-01-23T13:55:00.286Z,62.63
2019-01-23T14:00:10.454Z,58.00
2019-01-23T14:05:16.598Z,56.70
2019-01-23T14:10:24.233Z,53.83
2019-01-23T14:15:35.690Z,50.63
2019-01-23T14:20:42.606Z,50.10
2019-01-23T14:25:49.068Z,50.83
2019-01-23T14:30:55.343Z,49.00
2019-01-23T14:36:02.490Z,49.93
2019-01-23T14:41:08.229Z,45.67
2019-01-23T14:46:16.388Z,47.67
2019-01-23T14:51:22.652Z,45.50
2019-01-23T14:56:28.701Z,45.70
2019-01-23T15:01:35.077Z,43.87
2019-01-23T15:06:43.472Z,40.87
2019-01-23T15:11:49.454Z,41.70
2019-01-23T15:16:56.033Z,41.37
2019-01-23T15:22:04.605Z,42.77
2019-01-23T15:27:10.622Z,37.83
2019-01-23T15:32:17.440Z,35.40
2019-01-23T15:37:23.979Z,39.87
2019-01-23T15:42:29.884Z,38.83
2019-01-23T15:47:37.926Z,35.03
2019-01-23T15:52:43.651Z,33.13
2019-01-23T15:57:49.321Z,33.30
2019-01-23T16:02:55.587Z,34.23
2019-01-23T16:08:02.987Z,32.20
2019-01-23T16:13:10.196Z,29.53
2019-01-23T16:18:16.183Z,28.50
2019-01-23T16:23:24.820Z,27.80
2019-01-23T16:28:31.302Z,30.03
2019-01-23T16:33:38.485Z,30.80
2019-01-23T16:38:45.905Z,26.07
2019-01-23T16:43:52.338Z,27.40
2019-01-23T16:49:00.214Z,26.37
2019-01-23T16:54:07.589Z,25.57
2019-01-23T16:59:14.173Z,25.13
2019-01-23T17:04:21.282Z,22.47
2019-01-23T17:09:27.405Z,24.70
2019-01-23T17:14:33.472Z,23.03
2019-01-23T17:19:40.207Z,23.57
2019-01-23T17:24:47.870Z,21.77
2019-01-23T17:29:56.731Z,23.03
2019-01-23T17:35:03.568Z,21.47
2019-01-23T17:40:14.606Z,23.13
2019-01-23T17:45:29.821Z,23.40
2019-01-23T17:50:37.377Z,22.10
2019-01-23T17:55:43.424Z,23.50
2019-01-23T18:00:51.012Z,24.13
2019-01-23T18:05:58.789Z,24.93
2019-01-23T18:11:04.871Z,23.20
2019-01-23T18:16:10.670Z,22.63
2019-01-23T18:21:16.263Z,24.53
2019-01-23T18:32:08.403Z,23.30
2019-01-23T18:37:45.122Z,23.83
2019-01-23T18:55:21.274Z,23.87
2019-01-23T19:00:29.072Z,25.07
2019-01-23T19:05:36.759Z,24.90
2019-01-23T19:10:43.306Z,25.07
2019-01-23T19:15:49.968Z,24.60
2019-01-23T19:20:57.456Z,26.73
2019-01-23T19:26:04.766Z,23.70
2019-01-23T19:31:13.031Z,25.67
2019-01-23T19:36:19.914Z,26.70
2019-01-23T19:41:26.004Z,25.33
2019-01-23T19:46:31.794Z,25.30
2019-01-23T19:51:38.182Z,23.83
2019-01-23T19:56:43.955Z,25.20
2019-01-23T20:01:51.359Z,23.87
2019-01-23T20:06:57.136Z,24.07
2019-01-23T20:12:03.560Z,24.07
2019-01-23T20:17:10.299Z,23.27
2019-01-23T20:22:16.914Z,25.37
2019-01-23T20:27:22.857Z,23.90
2019-01-23T20:32:28.821Z,23.90
2019-01-23T20:37:35.057Z,23.47
2019-01-23T20:42:41.590Z,24.53
2019-01-23T20:47:47.826Z,25.00
2019-01-23T20:52:54.889Z,24.50
2019-01-23T20:58:00.921Z,24.77
2019-01-23T21:03:06.832Z,25.73
2019-01-23T21:08:12.780Z,24.23
2019-01-23T21:13:20.156Z,24.33
2019-01-23T21:18:25.924Z,24.97
2019-01-23T21:23:31.982Z,23.27
2019-01-23T21:28:38.168Z,25.87
2019-01-23T21:33:43.824Z,24.80
2019-01-23T21:38:50.790Z,24.13
2019-01-23T21:43:56.772Z,25.00
2019-01-23T21:49:02.754Z,26.37
2019-01-23T21:54:08.875Z,24.83
2019-01-23T21:59:14.826Z,26.47
2019-01-23T22:04:22.727Z,24.30
2019-01-23T22:09:28.475Z,26.57
2019-01-23T22:14:35.937Z,25.60
2019-01-23T22:19:41.783Z,25.17
2019-01-23T22:24:47.890Z,25.70
2019-01-23T22:29:54.530Z,27.33
2019-01-23T22:35:00.462Z,24.13
2019-01-23T22:40:09.460Z,24.90
2019-01-23T22:45:17.575Z,25.37
2019-01-23T22:50:25.753Z,24.70
2019-01-23T22:55:31.528Z,23.77
2019-01-23T23:00:43.171Z,24.63
2019-01-23T23:05:49.154Z,23.60
2019-01-23T23:10:55.201Z,24.33
2019-01-23T23:16:01.878Z,23.53
2019-01-23T23:21:09.528Z,24.43
2019-01-23T23:26:15.756Z,25.10
2019-01-23T23:31:23.667Z,23.73
2019-01-23T23:36:30.967Z,26.53
2019-01-23T23:41:36.874Z,26.73
2019-01-23T23:46:44.186Z,27.27
2019-01-23T23:51:50.059Z,25.93
2019-01-23T23:56:56.295Z,27.00
